Time;durP1;ratioP1;P1;durP2;ratioP2;P2;SDS_P1;SDS_P2;PMS_P1;PMS_P2;Temp;Humidity;BMP_temperature;BMP_pressure;BME280_temperature;BME280_humidity;BME280_pressure;Samples;Min_cycle;Max_cycle;Signal;HPM_P1;HPM_P2
2021/10/05 00:01:04;;;;;;;1.65;1.30;;;;;;;;;;4993846;28;20126;-71
2021/10/05 00:03:29;;;;;;;3.58;1.85;;;;;;;;;;4992463;28;20018;-71
2021/10/05 00:05:55;;;;;;;3.15;1.20;;;;;;;;;;4992987;28;20038;-71
2021/10/05 00:08:20;;;;;;;3.83;1.48;;;;;;;;;;4992570;28;20429;-71
2021/10/05 00:10:45;;;;;;;2.30;1.20;;;;;;;;;;4994762;28;20467;-71
2021/10/05 00:13:10;;;;;;;6.40;1.67;;;;;;;;;;4991756;28;20575;-71
2021/10/05 00:15:35;;;;;;;2.45;1.35;;;;;;;;;;4993985;28;20444;-71
2021/10/05 00:18:01;;;;;;;4.70;1.75;;;;;;;;;;4992235;28;20049;-71
2021/10/05 00:20:26;;;;;;;5.13;1.35;;;;;;;;;;4993210;28;20113;-71
2021/10/05 00:22:52;;;;;;;3.78;1.48;;;;;;;;;;4992556;28;20034;-71
2021/10/05 00:25:17;;;;;;;4.55;1.42;;;;;;;;;;4993151;28;20027;-71
2021/10/05 00:27:42;;;;;;;3.38;1.30;;;;;;;;;;4993580;28;20030;-70
2021/10/05 00:30:08;;;;;;;3.78;1.40;;;;;;;;;;4992960;28;20050;-71
2021/10/05 00:32:33;;;;;;;2.80;1.27;;;;;;;;;;4993155;28;20053;-71
2021/10/05 00:34:58;;;;;;;2.13;1.38;;;;;;;;;;4992492;28;20427;-71
2021/10/05 00:37:23;;;;;;;3.47;1.50;;;;;;;;;;4993543;28;20445;-70
2021/10/05 00:39:48;;;;;;;2.42;1.50;;;;;;;;;;4994431;28;20023;-71
2021/10/05 00:42:14;;;;;;;2.60;1.67;;;;;;;;;;4992047;28;20496;-71
2021/10/05 00:44:39;;;;;;;4.03;1.60;;;;;;;;;;4993899;28;20061;-71
2021/10/05 00:47:06;;;;;;;4.40;1.30;;;;;;;;;;4992655;28;20471;-71
2021/10/05 00:49:31;;;;;;;3.20;1.85;;;;;;;;;;4994111;28;20535;-71
2021/10/05 00:51:59;;;;;;;3.40;1.50;;;;;;;;;;4993102;28;20034;-70
2021/10/05 00:54:24;;;;;;;3.75;1.40;;;;;;;;;;4991049;28;20428;-71
2021/10/05 00:56:49;;;;;;;2.65;1.63;;;;;;;;;;4995107;28;20045;-71
2021/10/05 00:59:15;;;;;;;3.45;1.17;;;;;;;;;;4995201;28;20058;-71
2021/10/05 01:01:40;;;;;;;5.70;1.70;;;;;;;;;;4995030;28;20171;-70
2021/10/05 01:04:05;;;;;;;1.67;1.00;;;;;;;;;;4995589;28;20477;-70
2021/10/05 01:06:30;;;;;;;4.15;1.52;;;;;;;;;;5012638;28;20030;-71
2021/10/05 01:08:56;;;;;;;5.00;1.40;;;;;;;;;;4995126;28;20510;-70
2021/10/05 01:11:21;;;;;;;5.53;1.98;;;;;;;;;;5012751;28;20144;-71
2021/10/05 01:13:46;;;;;;;3.55;2.22;;;;;;;;;;5012315;28;20072;-70
2021/10/05 01:16:16;;;;;;;3.35;1.85;;;;;;;;;;5012322;28;20022;-71
2021/10/05 01:18:41;;;;;;;4.03;1.40;;;;;;;;;;5012344;28;20384;-71
2021/10/05 01:21:06;;;;;;;9.77;2.45;;;;;;;;;;5012807;28;20037;-69
2021/10/05 01:23:37;;;;;;;4.65;1.55;;;;;;;;;;5026803;28;20018;-70
2021/10/05 01:26:02;;;;;;;4.82;2.30;;;;;;;;;;5022601;28;20033;-70
2021/10/05 01:28:28;;;;;;;3.13;1.70;;;;;;;;;;5011827;28;20018;-70
2021/10/05 01:30:53;;;;;;;3.80;2.30;;;;;;;;;;5011904;28;20030;-70
2021/10/05 01:33:20;;;;;;;2.25;1.33;;;;;;;;;;5012131;28;20022;-70
2021/10/05 01:35:45;;;;;;;5.10;1.88;;;;;;;;;;5012664;28;20022;-70
2021/10/05 01:38:10;;;;;;;4.03;1.80;;;;;;;;;;5011865;28;20439;-70
2021/10/05 01:40:36;;;;;;;5.20;1.65;;;;;;;;;;4994687;28;20018;-69
2021/10/05 01:43:01;;;;;;;3.80;1.83;;;;;;;;;;4994648;28;20504;-69
2021/10/05 01:45:26;;;;;;;2.95;1.70;;;;;;;;;;5012282;28;20022;-70
2021/10/05 01:47:51;;;;;;;4.95;1.92;;;;;;;;;;5011841;28;20025;-70
2021/10/05 01:50:18;;;;;;;2.45;1.33;;;;;;;;;;4994307;28;20383;-70
2021/10/05 01:52:43;;;;;;;4.43;1.85;;;;;;;;;;5011817;28;20025;-70
2021/10/05 01:55:09;;;;;;;4.93;2.03;;;;;;;;;;5009069;28;20112;-69
2021/10/05 01:57:34;;;;;;;4.00;1.52;;;;;;;;;;5011207;28;20050;-69
2021/10/05 01:59:59;;;;;;;3.05;1.70;;;;;;;;;;5012202;28;20048;-70
2021/10/05 02:02:25;;;;;;;3.45;1.88;;;;;;;;;;4993494;28;20028;-70
2021/10/05 02:04:50;;;;;;;6.57;2.00;;;;;;;;;;5011931;28;20029;-70
2021/10/05 02:07:15;;;;;;;3.55;1.95;;;;;;;;;;4994139;28;20061;-71
2021/10/05 02:09:47;;;;;;;5.25;2.22;;;;;;;;;;5011600;28;20084;-71
2021/10/05 02:12:12;;;;;;;3.25;1.75;;;;;;;;;;4995166;28;20116;-71
2021/10/05 02:14:37;;;;;;;3.00;1.85;;;;;;;;;;5011691;28;20536;-71
2021/10/05 02:17:03;;;;;;;2.55;1.60;;;;;;;;;;5010338;28;20033;-71
2021/10/05 02:19:28;;;;;;;3.72;2.00;;;;;;;;;;5011715;28;20097;-71
2021/10/05 02:21:53;;;;;;;2.85;1.58;;;;;;;;;;5011661;28;20022;-71
2021/10/05 02:26:43;;;;;;;4.03;2.15;;;;;;;;;;5012210;28;20117;-71
2021/10/05 02:29:09;;;;;;;4.75;2.28;;;;;;;;;;5011631;28;20018;-71
2021/10/05 02:31:34;;;;;;;4.40;2.40;;;;;;;;;;4993877;28;20360;-71
2021/10/05 02:34:00;;;;;;;3.45;2.00;;;;;;;;;;5011434;28;20018;-71
2021/10/05 02:36:25;;;;;;;5.70;2.22;;;;;;;;;;4994194;28;20033;-71
2021/10/05 02:38:50;;;;;;;6.47;2.72;;;;;;;;;;4993740;28;20026;-71
2021/10/05 02:41:15;;;;;;;5.80;2.17;;;;;;;;;;4993575;28;20030;-71
2021/10/05 02:43:41;;;;;;;4.18;2.25;;;;;;;;;;5010943;28;20044;-71
2021/10/05 02:46:06;;;;;;;6.13;2.53;;;;;;;;;;5011218;28;20040;-71
2021/10/05 02:48:31;;;;;;;3.33;2.10;;;;;;;;;;4993992;28;20030;-71
2021/10/05 02:50:57;;;;;;;6.22;2.50;;;;;;;;;;5011908;28;20047;-71
2021/10/05 02:53:22;;;;;;;4.53;2.42;;;;;;;;;;5015326;28;20036;-71
2021/10/05 02:55:49;;;;;;;5.60;3.10;;;;;;;;;;5013527;28;20026;-71
2021/10/05 02:58:14;;;;;;;4.55;3.05;;;;;;;;;;5015496;28;20021;-70
2021/10/05 03:00:40;;;;;;;6.32;3.47;;;;;;;;;;4992152;28;20121;-70
2021/10/05 03:03:05;;;;;;;4.35;2.75;;;;;;;;;;4978051;28;20022;-70
2021/10/05 03:05:30;;;;;;;3.90;2.53;;;;;;;;;;4994955;28;20466;-70
2021/10/05 03:07:55;;;;;;;6.50;2.67;;;;;;;;;;5015013;28;20030;-70
2021/10/05 03:10:20;;;;;;;4.82;3.08;;;;;;;;;;4985601;28;20034;-70
2021/10/05 03:12:46;;;;;;;4.78;2.92;;;;;;;;;;4995646;28;20057;-70
2021/10/05 03:15:11;;;;;;;4.00;3.15;;;;;;;;;;4999500;28;20064;-72
2021/10/05 03:17:36;;;;;;;6.13;3.17;;;;;;;;;;4996746;28;20013;-71
2021/10/05 03:20:02;;;;;;;6.32;3.30;;;;;;;;;;5015300;28;20412;-71
2021/10/05 03:22:27;;;;;;;7.57;3.95;;;;;;;;;;5014876;28;20026;-71
2021/10/05 03:24:53;;;;;;;8.48;4.78;;;;;;;;;;4995526;28;20434;-71
2021/10/05 03:27:18;;;;;;;6.63;3.88;;;;;;;;;;4996244;28;20048;-71
2021/10/05 03:29:43;;;;;;;8.75;4.88;;;;;;;;;;5015148;28;20033;-71
2021/10/05 03:32:08;;;;;;;6.70;4.38;;;;;;;;;;4996499;28;20029;-70
2021/10/05 03:34:33;;;;;;;8.02;5.10;;;;;;;;;;5014796;28;20536;-71
2021/10/05 03:36:59;;;;;;;7.25;4.45;;;;;;;;;;4996284;28;20570;-71
2021/10/05 03:39:25;;;;;;;6.78;4.78;;;;;;;;;;4997182;28;20018;-71
2021/10/05 03:41:50;;;;;;;6.60;4.60;;;;;;;;;;5014345;28;20014;-70
2021/10/05 03:44:15;;;;;;;9.00;4.93;;;;;;;;;;5014256;28;20099;-70
2021/10/05 03:46:41;;;;;;;6.97;4.90;;;;;;;;;;5013523;28;20392;-70
2021/10/05 03:49:06;;;;;;;9.95;6.18;;;;;;;;;;4996910;28;20096;-71
2021/10/05 03:51:31;;;;;;;9.32;5.78;;;;;;;;;;4996647;28;20072;-71
2021/10/05 03:53:57;;;;;;;7.15;5.72;;;;;;;;;;5013924;28;20103;-71
2021/10/05 03:56:22;;;;;;;8.07;4.95;;;;;;;;;;5011622;28;20092;-71
2021/10/05 03:58:47;;;;;;;12.85;6.25;;;;;;;;;;4996512;28;20030;-71
2021/10/05 04:01:13;;;;;;;7.40;4.97;;;;;;;;;;4996289;28;20064;-71
2021/10/05 04:03:39;;;;;;;8.63;5.90;;;;;;;;;;4995630;28;20032;-70
2021/10/05 04:06:04;;;;;;;7.00;5.30;;;;;;;;;;4996451;28;20030;-71
2021/10/05 04:08:29;;;;;;;8.82;5.18;;;;;;;;;;4979939;28;20084;-70
2021/10/05 04:10:54;;;;;;;6.88;4.80;;;;;;;;;;4980333;28;20055;-70
2021/10/05 04:13:20;;;;;;;8.07;5.63;;;;;;;;;;4996198;28;20030;-70
2021/10/05 04:15:45;;;;;;;8.38;5.53;;;;;;;;;;4979442;28;20064;-70
2021/10/05 04:18:10;;;;;;;8.85;5.65;;;;;;;;;;4979659;28;20062;-69
2021/10/05 04:20:35;;;;;;;8.32;5.47;;;;;;;;;;4996229;28;20029;-70
2021/10/05 04:23:00;;;;;;;8.90;5.55;;;;;;;;;;4995753;28;20021;-72
2021/10/05 04:25:26;;;;;;;7.93;6.05;;;;;;;;;;4994206;28;20037;-71
2021/10/05 04:27:51;;;;;;;9.25;5.68;;;;;;;;;;4995609;28;20045;-71
2021/10/05 04:30:16;;;;;;;9.68;5.68;;;;;;;;;;5013898;28;20022;-70
2021/10/05 04:32:42;;;;;;;9.75;5.88;;;;;;;;;;4979645;28;20036;-72
2021/10/05 04:35:07;;;;;;;11.25;6.43;;;;;;;;;;4995613;28;20120;-70
2021/10/05 04:37:32;;;;;;;8.93;5.88;;;;;;;;;;5012862;28;20022;-70
2021/10/05 04:39:58;;;;;;;8.98;6.22;;;;;;;;;;5014711;28;20379;-70
2021/10/05 04:42:24;;;;;;;9.15;6.05;;;;;;;;;;4996099;28;20050;-71
2021/10/05 04:44:49;;;;;;;8.70;5.70;;;;;;;;;;5012853;28;20021;-70
2021/10/05 04:47:14;;;;;;;10.30;5.65;;;;;;;;;;4994448;28;20036;-71
2021/10/05 04:49:41;;;;;;;10.35;6.03;;;;;;;;;;4995426;28;20554;-71
2021/10/05 04:52:06;;;;;;;11.50;6.65;;;;;;;;;;4995046;28;20029;-70
2021/10/05 04:54:32;;;;;;;8.77;6.00;;;;;;;;;;4993860;28;20030;-70
2021/10/05 04:56:57;;;;;;;10.68;6.85;;;;;;;;;;4975240;28;20073;-71
2021/10/05 04:59:22;;;;;;;9.57;6.28;;;;;;;;;;4991286;28;20106;-70
2021/10/05 05:01:48;;;;;;;9.70;7.30;;;;;;;;;;4991767;28;20026;-69
2021/10/05 05:04:13;;;;;;;10.13;7.25;;;;;;;;;;4993155;28;20501;-70
2021/10/05 05:06:39;;;;;;;10.65;7.45;;;;;;;;;;4984159;28;20072;-70
2021/10/05 05:09:05;;;;;;;11.43;7.10;;;;;;;;;;4988549;28;20038;-71
2021/10/05 05:11:30;;;;;;;11.43;8.45;;;;;;;;;;4993068;28;20101;-70
2021/10/05 05:13:55;;;;;;;12.57;7.55;;;;;;;;;;4974086;28;20500;-71
2021/10/05 05:16:21;;;;;;;11.00;6.65;;;;;;;;;;4992460;28;20042;-72
2021/10/05 05:18:46;;;;;;;11.90;7.45;;;;;;;;;;4992333;28;20018;-72
2021/10/05 05:21:11;;;;;;;10.15;7.80;;;;;;;;;;4991642;28;20117;-71
2021/10/05 05:23:36;;;;;;;12.55;8.27;;;;;;;;;;4992501;28;20098;-74
2021/10/05 05:26:01;;;;;;;10.27;7.90;;;;;;;;;;4986681;28;20030;-71
2021/10/05 05:28:27;;;;;;;12.05;7.45;;;;;;;;;;4987658;28;20032;-71
2021/10/05 05:30:52;;;;;;;10.18;6.78;;;;;;;;;;4992788;28;20034;-70
2021/10/05 05:33:17;;;;;;;10.55;8.15;;;;;;;;;;4991931;28;20042;-70
2021/10/05 05:35:42;;;;;;;12.68;8.70;;;;;;;;;;4992602;28;20062;-70
2021/10/05 05:38:07;;;;;;;12.38;8.85;;;;;;;;;;4991335;28;20033;-69
2021/10/05 05:40:33;;;;;;;12.32;7.70;;;;;;;;;;4990839;28;20469;-71
2021/10/05 05:42:58;;;;;;;12.25;7.47;;;;;;;;;;4992334;28;20060;-71
2021/10/05 05:45:23;;;;;;;12.98;7.97;;;;;;;;;;4990984;28;20030;-74
2021/10/05 05:47:50;;;;;;;13.52;8.23;;;;;;;;;;4990357;28;20418;-70
2021/10/05 05:50:15;;;;;;;11.13;7.53;;;;;;;;;;4990397;28;20030;-71
2021/10/05 05:52:41;;;;;;;11.25;8.10;;;;;;;;;;4988883;28;20539;-71
2021/10/05 05:55:06;;;;;;;9.73;7.38;;;;;;;;;;4984049;28;20519;-71
2021/10/05 05:57:32;;;;;;;10.60;7.45;;;;;;;;;;4989649;28;20520;-72
2021/10/05 05:59:58;;;;;;;10.45;8.07;;;;;;;;;;4992031;28;20022;-70
2021/10/05 06:02:23;;;;;;;12.50;7.07;;;;;;;;;;4992178;28;20050;-71
2021/10/05 06:04:49;;;;;;;10.50;7.63;;;;;;;;;;4988134;28;20061;-70
2021/10/05 06:07:15;;;;;;;8.52;6.90;;;;;;;;;;4992158;28;20018;-71
2021/10/05 06:09:40;;;;;;;10.02;7.47;;;;;;;;;;4990708;28;20105;-70
2021/10/05 06:12:08;;;;;;;11.10;8.00;;;;;;;;;;4990197;28;20097;-71
2021/10/05 06:14:35;;;;;;;12.07;7.63;;;;;;;;;;4990065;28;20026;-70
2021/10/05 06:17:01;;;;;;;12.13;8.20;;;;;;;;;;4986558;28;20515;-70
2021/10/05 06:19:27;;;;;;;9.55;7.80;;;;;;;;;;4983366;28;20022;-70
2021/10/05 06:21:52;;;;;;;11.30;7.50;;;;;;;;;;4987625;28;20053;-69
2021/10/05 06:24:17;;;;;;;14.20;7.82;;;;;;;;;;4971089;28;20088;-69
2021/10/05 06:26:42;;;;;;;10.90;8.38;;;;;;;;;;4987950;28;20472;-70
2021/10/05 06:29:08;;;;;;;12.18;8.00;;;;;;;;;;4968366;28;20046;-70
2021/10/05 06:31:33;;;;;;;11.23;8.55;;;;;;;;;;4989648;28;20018;-71
2021/10/05 06:33:58;;;;;;;12.63;8.55;;;;;;;;;;4991953;28;20038;-71
2021/10/05 06:36:23;;;;;;;11.85;8.85;;;;;;;;;;4990944;28;20058;-71
2021/10/05 06:38:49;;;;;;;18.70;12.75;;;;;;;;;;4992134;28;20022;-71
2021/10/05 06:41:14;;;;;;;15.38;11.45;;;;;;;;;;4990942;28;20030;-70
2021/10/05 06:43:39;;;;;;;15.90;12.65;;;;;;;;;;4991768;28;20033;-71
2021/10/05 06:46:04;;;;;;;19.48;16.25;;;;;;;;;;4990143;28;20129;-70
2021/10/05 06:48:29;;;;;;;19.90;16.67;;;;;;;;;;4989519;28;20041;-68
2021/10/05 06:50:55;;;;;;;17.30;14.63;;;;;;;;;;4989903;28;20054;-69
2021/10/05 06:53:20;;;;;;;16.40;14.15;;;;;;;;;;4991898;28;20174;-70
2021/10/05 06:55:46;;;;;;;14.85;12.30;;;;;;;;;;4989337;28;20023;-69
2021/10/05 06:58:11;;;;;;;17.13;13.68;;;;;;;;;;5010024;28;20500;-69
2021/10/05 07:00:37;;;;;;;19.98;17.08;;;;;;;;;;5011119;28;20026;-69
2021/10/05 07:03:02;;;;;;;20.40;15.68;;;;;;;;;;4993337;28;20101;-69
2021/10/05 07:05:27;;;;;;;15.23;12.00;;;;;;;;;;4993728;28;20026;-68
2021/10/05 07:07:52;;;;;;;13.15;9.45;;;;;;;;;;5010236;28;20157;-69
2021/10/05 07:10:19;;;;;;;12.35;9.68;;;;;;;;;;5011372;28;20057;-69
2021/10/05 07:12:44;;;;;;;11.50;9.00;;;;;;;;;;5011346;28;20388;-69
2021/10/05 07:15:09;;;;;;;10.93;6.95;;;;;;;;;;5010386;28;20034;-68
2021/10/05 07:17:35;;;;;;;8.73;7.18;;;;;;;;;;5010327;28;20014;-69
2021/10/05 07:20:00;;;;;;;9.57;7.40;;;;;;;;;;5011249;28;20050;-68
2021/10/05 07:22:26;;;;;;;12.98;8.90;;;;;;;;;;4976815;28;20033;-68
2021/10/05 07:24:51;;;;;;;8.85;7.50;;;;;;;;;;4992550;28;20040;-69
2021/10/05 07:27:16;;;;;;;9.13;7.35;;;;;;;;;;5000247;28;20022;-68
2021/10/05 07:29:41;;;;;;;9.70;7.97;;;;;;;;;;4991359;28;20060;-68
2021/10/05 07:32:07;;;;;;;12.27;9.73;;;;;;;;;;5011017;28;20053;-68
2021/10/05 07:34:32;;;;;;;12.85;9.43;;;;;;;;;;5010859;28;20065;-68
2021/10/05 07:36:57;;;;;;;13.13;9.93;;;;;;;;;;5011435;28;20090;-68
2021/10/05 07:39:23;;;;;;;14.85;10.38;;;;;;;;;;5014220;28;20024;-69
2021/10/05 07:41:48;;;;;;;16.75;11.07;;;;;;;;;;4996963;28;20496;-68
2021/10/05 07:44:13;;;;;;;16.70;10.85;;;;;;;;;;5014832;28;20025;-68
2021/10/05 07:46:39;;;;;;;12.00;10.38;;;;;;;;;;5012756;28;20022;-68
2021/10/05 07:49:05;;;;;;;14.52;11.57;;;;;;;;;;5014607;28;20034;-68
2021/10/05 07:51:30;;;;;;;16.00;12.27;;;;;;;;;;5013384;28;20030;-69
2021/10/05 07:53:56;;;;;;;15.02;11.95;;;;;;;;;;5003768;28;20483;-68
2021/10/05 07:56:21;;;;;;;16.95;12.38;;;;;;;;;;5010833;28;20443;-69
2021/10/05 07:58:46;;;;;;;15.50;12.40;;;;;;;;;;4996411;28;20034;-69
2021/10/05 08:01:11;;;;;;;15.30;10.88;;;;;;;;;;5013487;28;20049;-68
2021/10/05 08:03:36;;;;;;;13.90;11.80;;;;;;;;;;5013640;28;20021;-69
2021/10/05 08:06:02;;;;;;;13.10;11.20;;;;;;;;;;5015459;28;20109;-69
2021/10/05 08:08:28;;;;;;;15.82;11.98;;;;;;;;;;4996366;28;20479;-69
2021/10/05 08:10:53;;;;;;;16.75;11.50;;;;;;;;;;5013978;28;20022;-69
2021/10/05 08:13:18;;;;;;;17.85;11.80;;;;;;;;;;5013543;28;20483;-69
2021/10/05 08:15:44;;;;;;;20.60;11.98;;;;;;;;;;5013762;28;20026;-69
2021/10/05 08:18:09;;;;;;;12.18;9.65;;;;;;;;;;4995847;28;20384;-68
2021/10/05 08:20:34;;;;;;;14.93;9.90;;;;;;;;;;4995827;28;20077;-69
2021/10/05 08:22:59;;;;;;;11.80;8.90;;;;;;;;;;4994276;28;20484;-68
2021/10/05 08:25:25;;;;;;;16.77;10.95;;;;;;;;;;4993380;28;20029;-69
2021/10/05 08:27:50;;;;;;;16.55;11.80;;;;;;;;;;5013242;28;20021;-69
2021/10/05 08:30:16;;;;;;;15.85;11.93;;;;;;;;;;5013931;28;20034;-69
2021/10/05 08:32:42;;;;;;;17.27;12.75;;;;;;;;;;4995057;28;20032;-69
2021/10/05 08:35:08;;;;;;;12.45;10.05;;;;;;;;;;5014149;28;20108;-69
2021/10/05 08:37:33;;;;;;;17.35;11.40;;;;;;;;;;5013171;28;20101;-69
2021/10/05 08:39:58;;;;;;;13.52;9.50;;;;;;;;;;5013159;28;20021;-69
2021/10/05 08:42:23;;;;;;;14.52;11.23;;;;;;;;;;5013090;28;20022;-69
2021/10/05 08:44:49;;;;;;;12.52;9.48;;;;;;;;;;5013527;28;20460;-69
2021/10/05 08:47:16;;;;;;;14.60;10.30;;;;;;;;;;4994796;28;20034;-68
2021/10/05 08:49:43;;;;;;;13.57;10.15;;;;;;;;;;5013381;28;20053;-69
2021/10/05 08:52:08;;;;;;;13.75;10.73;;;;;;;;;;4995330;28;20026;-69
2021/10/05 08:54:33;;;;;;;13.57;10.35;;;;;;;;;;4993738;28;20056;-68
2021/10/05 08:56:59;;;;;;;15.30;11.25;;;;;;;;;;4974555;28;20062;-69
2021/10/05 08:59:24;;;;;;;14.93;11.52;;;;;;;;;;4974171;28;20051;-68
2021/10/05 09:01:50;;;;;;;13.57;11.15;;;;;;;;;;4979027;28;20026;-68
2021/10/05 09:04:15;;;;;;;14.40;11.07;;;;;;;;;;4993157;28;20038;-69
2021/10/05 09:06:43;;;;;;;15.25;11.68;;;;;;;;;;4991804;28;20027;-68
2021/10/05 09:09:08;;;;;;;14.90;11.75;;;;;;;;;;4993436;28;20741;-69
2021/10/05 09:11:38;;;;;;;12.80;11.45;;;;;;;;;;4993308;28;20026;-68
2021/10/05 09:14:03;;;;;;;16.45;12.38;;;;;;;;;;4993434;28;20053;-68
2021/10/05 09:16:30;;;;;;;14.77;11.55;;;;;;;;;;4992928;28;20481;-68
2021/10/05 09:18:57;;;;;;;14.07;12.32;;;;;;;;;;4992982;28;20027;-69
2021/10/05 09:21:24;;;;;;;16.92;13.43;;;;;;;;;;4993018;28;20477;-69
2021/10/05 09:23:53;;;;;;;14.77;12.00;;;;;;;;;;4992424;28;20030;-68
2021/10/05 09:26:18;;;;;;;16.65;13.30;;;;;;;;;;4991405;28;20034;-69
2021/10/05 09:28:43;;;;;;;15.38;12.35;;;;;;;;;;4992903;28;20045;-69
2021/10/05 09:31:09;;;;;;;20.15;15.38;;;;;;;;;;4991557;28;20037;-69
2021/10/05 09:33:35;;;;;;;17.58;14.38;;;;;;;;;;4991007;28;20465;-69
2021/10/05 09:36:00;;;;;;;16.58;12.93;;;;;;;;;;4984133;28;20030;-70
2021/10/05 09:38:26;;;;;;;18.58;13.63;;;;;;;;;;4959391;28;20050;-69
2021/10/05 09:40:58;;;;;;;14.25;12.68;;;;;;;;;;4992587;28;20073;-69
2021/10/05 09:43:23;;;;;;;15.13;13.15;;;;;;;;;;4993227;28;20459;-69
2021/10/05 09:45:48;;;;;;;15.77;13.38;;;;;;;;;;4993588;28;20030;-70
2021/10/05 09:48:14;;;;;;;14.43;12.57;;;;;;;;;;4990875;28;20058;-69
2021/10/05 09:50:39;;;;;;;14.02;10.77;;;;;;;;;;4991607;28;20030;-70
2021/10/05 09:53:09;;;;;;;10.65;9.55;;;;;;;;;;4980823;28;20038;-71
2021/10/05 09:55:35;;;;;;;11.50;9.82;;;;;;;;;;4982595;28;20022;-70
2021/10/05 09:58:01;;;;;;;12.57;11.23;;;;;;;;;;4992502;28;20053;-70
2021/10/05 10:00:27;;;;;;;14.75;12.20;;;;;;;;;;4992367;28;20368;-70
2021/10/05 10:02:53;;;;;;;11.85;10.60;;;;;;;;;;5003737;28;20029;-70
2021/10/05 10:05:19;;;;;;;13.82;12.27;;;;;;;;;;5011925;28;20017;-70
2021/10/05 10:07:46;;;;;;;11.65;10.45;;;;;;;;;;4993794;28;20112;-70
2021/10/05 10:10:13;;;;;;;13.10;11.70;;;;;;;;;;4993571;28;20034;-69
2021/10/05 10:12:49;;;;;;;11.38;9.73;;;;;;;;;;4998145;28;20104;-70
2021/10/05 10:15:15;;;;;;;9.55;8.48;;;;;;;;;;4994062;28;20022;-69
2021/10/05 10:17:40;;;;;;;11.18;9.75;;;;;;;;;;5010577;28;20045;-69
2021/10/05 10:20:06;;;;;;;10.50;9.15;;;;;;;;;;5011387;28;20028;-69
2021/10/05 10:22:50;;;;;;;10.68;8.77;;;;;;;;;;5011007;28;20030;-69
2021/10/05 10:25:22;;;;;;;9.68;8.68;;;;;;;;;;5009790;28;20523;-70
2021/10/05 10:27:48;;;;;;;6.75;5.22;;;;;;;;;;4991869;28;20109;-70
2021/10/05 10:30:13;;;;;;;10.18;8.85;;;;;;;;;;4974447;28;20114;-70
2021/10/05 10:32:43;;;;;;;8.50;7.70;;;;;;;;;;5007562;28;20031;-70
2021/10/05 10:35:09;;;;;;;8.02;6.28;;;;;;;;;;5011249;28;20021;-70
2021/10/05 10:37:41;;;;;;;7.88;6.80;;;;;;;;;;5010364;28;20022;-70
2021/10/05 10:40:07;;;;;;;7.32;6.47;;;;;;;;;;5008112;28;20480;-70
2021/10/05 10:42:32;;;;;;;6.22;5.53;;;;;;;;;;5011352;28;20029;-69
2021/10/05 10:44:57;;;;;;;7.20;6.05;;;;;;;;;;4993156;28;20072;-71
2021/10/05 10:47:24;;;;;;;7.45;5.95;;;;;;;;;;5009924;28;20380;-70
2021/10/05 10:49:53;;;;;;;7.03;6.32;;;;;;;;;;4992618;28;20018;-71
2021/10/05 10:52:22;;;;;;;6.28;5.68;;;;;;;;;;5011300;28;20380;-71
2021/10/05 10:54:51;;;;;;;6.85;5.53;;;;;;;;;;5008657;28;20025;-71
2021/10/05 10:57:16;;;;;;;6.20;5.60;;;;;;;;;;4983863;28;20035;-71
2021/10/05 10:59:42;;;;;;;5.65;5.05;;;;;;;;;;4990103;28;20097;-72
2021/10/05 11:02:07;;;;;;;5.30;4.80;;;;;;;;;;4991732;28;20042;-70
2021/10/05 11:04:33;;;;;;;5.25;4.75;;;;;;;;;;4991368;28;20042;-70
2021/10/05 11:06:58;;;;;;;4.70;4.30;;;;;;;;;;4991626;28;20014;-70
2021/10/05 11:09:41;;;;;;;4.20;3.90;;;;;;;;;;4990989;28;20022;-70
2021/10/05 11:12:08;;;;;;;3.58;3.28;;;;;;;;;;4991953;28;20536;-70
2021/10/05 11:14:40;;;;;;;3.50;3.20;;;;;;;;;;4994499;28;20026;-70
2021/10/05 11:17:07;;;;;;;4.03;3.63;;;;;;;;;;4995003;28;20104;-70
2021/10/05 11:19:35;;;;;;;3.70;3.40;;;;;;;;;;4995309;28;20142;-70
2021/10/05 11:22:02;;;;;;;3.95;3.55;;;;;;;;;;4995200;28;20018;-69
2021/10/05 11:24:34;;;;;;;4.30;3.90;;;;;;;;;;4993207;28;20472;-69
2021/10/05 11:26:59;;;;;;;3.28;2.97;;;;;;;;;;4995592;28;20033;-70
2021/10/05 11:29:26;;;;;;;4.05;3.65;;;;;;;;;;4994772;28;20391;-69
2021/10/05 11:31:56;;;;;;;3.97;3.67;;;;;;;;;;4994819;28;20427;-70
2021/10/05 11:34:22;;;;;;;4.65;4.25;;;;;;;;;;4995191;28;20073;-70
2021/10/05 11:36:47;;;;;;;4.15;3.80;;;;;;;;;;4994950;28;20457;-70
2021/10/05 11:39:23;;;;;;;4.38;4.00;;;;;;;;;;4994993;28;20065;-70
2021/10/05 11:41:50;;;;;;;3.45;3.15;;;;;;;;;;4995426;28;20030;-70
2021/10/05 11:44:20;;;;;;;5.28;3.38;;;;;;;;;;4993722;28;20349;-70
2021/10/05 11:46:58;;;;;;;3.65;3.35;;;;;;;;;;4992880;28;20117;-70
2021/10/05 11:49:24;;;;;;;3.05;2.85;;;;;;;;;;4991563;28;20476;-70
2021/10/05 11:51:51;;;;;;;3.53;3.22;;;;;;;;;;4985000;28;20026;-71
2021/10/05 11:54:18;;;;;;;3.20;3.00;;;;;;;;;;4991825;28;20511;-72
2021/10/05 11:56:43;;;;;;;2.83;2.63;;;;;;;;;;5002910;28;20128;-70
2021/10/05 11:59:19;;;;;;;3.85;3.55;;;;;;;;;;4995594;28;20464;-71
2021/10/05 12:01:44;;;;;;;3.63;3.33;;;;;;;;;;5012610;28;20018;-70
2021/10/05 12:04:09;;;;;;;3.83;3.53;;;;;;;;;;5013945;28;20361;-71
2021/10/05 12:06:36;;;;;;;3.78;3.47;;;;;;;;;;5013444;28;20034;-70
2021/10/05 12:09:03;;;;;;;4.35;3.80;;;;;;;;;;4993958;28;20030;-70
2021/10/05 12:11:35;;;;;;;3.30;3.00;;;;;;;;;;5008604;28;20370;-71
2021/10/05 12:14:01;;;;;;;3.05;2.75;;;;;;;;;;4996208;28;20391;-71
2021/10/05 12:16:27;;;;;;;3.22;3.03;;;;;;;;;;5026378;28;20025;-70
2021/10/05 12:18:56;;;;;;;2.78;2.58;;;;;;;;;;5014366;28;20392;-71
2021/10/05 12:21:21;;;;;;;2.53;2.40;;;;;;;;;;5005082;28;20022;-70
2021/10/05 12:23:50;;;;;;;2.47;2.28;;;;;;;;;;4995410;28;20113;-70
2021/10/05 12:26:16;;;;;;;1.83;1.73;;;;;;;;;;5014799;28;20028;-70
2021/10/05 12:28:53;;;;;;;2.92;1.92;;;;;;;;;;4999373;28;20026;-71
2021/10/05 12:31:19;;;;;;;1.50;1.40;;;;;;;;;;4996045;28;20025;-71
2021/10/05 12:33:53;;;;;;;2.15;1.52;;;;;;;;;;4994514;28;20219;-70
2021/10/05 12:36:22;;;;;;;1.40;1.30;;;;;;;;;;5014170;28;20068;-70
2021/10/05 12:38:47;;;;;;;0.82;0.82;;;;;;;;;;4995185;28;20030;-71
2021/10/05 12:41:12;;;;;;;2.10;2.00;;;;;;;;;;4995704;28;20056;-71
2021/10/05 12:43:39;;;;;;;1.80;1.70;;;;;;;;;;4995580;28;20492;-71
2021/10/05 12:46:06;;;;;;;2.35;1.63;;;;;;;;;;5013049;28;20025;-72
2021/10/05 12:48:34;;;;;;;1.50;1.35;;;;;;;;;;5012552;28;20112;-70
2021/10/05 12:51:00;;;;;;;1.60;1.50;;;;;;;;;;5013198;28;20113;-70
2021/10/05 12:53:26;;;;;;;1.48;1.27;;;;;;;;;;5012908;28;20021;-72
2021/10/05 12:55:51;;;;;;;1.60;1.50;;;;;;;;;;4995226;28;20491;-72
2021/10/05 12:58:16;;;;;;;1.87;1.50;;;;;;;;;;5021100;28;20022;-72
2021/10/05 13:00:42;;;;;;;1.33;1.23;;;;;;;;;;5013203;28;20786;-71
2021/10/05 13:03:08;;;;;;;1.23;1.15;;;;;;;;;;5012815;28;20118;-71
2021/10/05 13:05:34;;;;;;;2.72;1.13;;;;;;;;;;4995652;28;20017;-70
2021/10/05 13:07:59;;;;;;;2.40;1.20;;;;;;;;;;4978742;28;20080;-70
2021/10/05 13:10:24;;;;;;;2.28;1.38;;;;;;;;;;4994764;28;20624;-71
2021/10/05 13:12:50;;;;;;;1.38;1.27;;;;;;;;;;4994471;28;20022;-70
2021/10/05 13:15:15;;;;;;;2.65;1.60;;;;;;;;;;5013021;28;20018;-70
2021/10/05 13:17:41;;;;;;;2.58;1.20;;;;;;;;;;4994066;28;20075;-71
2021/10/05 13:20:07;;;;;;;2.05;1.77;;;;;;;;;;5012155;28;20021;-71
2021/10/05 13:22:32;;;;;;;2.75;1.90;;;;;;;;;;4993756;28;20087;-69
2021/10/05 13:24:59;;;;;;;2.67;1.83;;;;;;;;;;4995634;28;20547;-68
2021/10/05 13:27:24;;;;;;;2.47;1.65;;;;;;;;;;4995376;28;20044;-68
2021/10/05 13:29:50;;;;;;;2.35;1.48;;;;;;;;;;4994598;28;20476;-69
2021/10/05 13:32:15;;;;;;;1.98;1.60;;;;;;;;;;4994137;28;20164;-68
2021/10/05 13:34:40;;;;;;;1.60;1.48;;;;;;;;;;5017301;28;20093;-69
2021/10/05 13:37:06;;;;;;;2.67;2.20;;;;;;;;;;5031702;28;20468;-70
2021/10/05 13:39:31;;;;;;;3.08;1.95;;;;;;;;;;5017978;28;20388;-70
2021/10/05 13:41:56;;;;;;;2.80;2.17;;;;;;;;;;5011642;28;20025;-69
2021/10/05 13:44:21;;;;;;;2.47;1.58;;;;;;;;;;4994232;28;20589;-70
2021/10/05 13:46:47;;;;;;;3.67;2.42;;;;;;;;;;5011599;28;20024;-71
2021/10/05 13:49:12;;;;;;;6.18;3.15;;;;;;;;;;4994367;28;20383;-72
2021/10/05 13:51:37;;;;;;;2.08;1.90;;;;;;;;;;4993582;28;20125;-72
2021/10/05 13:54:03;;;;;;;2.92;2.72;;;;;;;;;;4992794;28;20476;-72
2021/10/05 13:56:28;;;;;;;2.58;2.38;;;;;;;;;;4990537;28;20049;-72
2021/10/05 13:58:54;;;;;;;2.83;2.20;;;;;;;;;;4990853;28;20472;-70
2021/10/05 14:01:19;;;;;;;3.25;2.28;;;;;;;;;;4984161;28;20534;-71
2021/10/05 14:03:44;;;;;;;3.67;3.35;;;;;;;;;;4991841;28;20532;-70
2021/10/05 14:06:12;;;;;;;2.75;2.40;;;;;;;;;;4982383;28;20038;-71
2021/10/05 14:08:37;;;;;;;3.83;2.75;;;;;;;;;;4991365;28;20064;-70
2021/10/05 14:11:02;;;;;;;2.63;2.42;;;;;;;;;;4998663;28;20057;-69
2021/10/05 14:13:27;;;;;;;3.75;2.45;;;;;;;;;;4991115;28;20030;-72
2021/10/05 14:15:53;;;;;;;2.90;2.50;;;;;;;;;;4990492;28;20037;-72
2021/10/05 14:18:18;;;;;;;4.65;3.03;;;;;;;;;;4989190;28;20546;-73
2021/10/05 14:20:46;;;;;;;4.05;3.30;;;;;;;;;;4989897;28;20529;-72
2021/10/05 14:23:11;;;;;;;3.25;3.00;;;;;;;;;;4989633;28;20501;-72
2021/10/05 14:25:37;;;;;;;2.70;2.47;;;;;;;;;;4988857;28;20042;-71
2021/10/05 14:28:02;;;;;;;3.25;2.60;;;;;;;;;;4991924;28;20030;-72
2021/10/05 14:30:27;;;;;;;2.40;2.20;;;;;;;;;;4991232;28;20487;-70